Time;durP1;ratioP1;P1;durP2;ratioP2;P2;SDS_P1;SDS_P2;PMS_P1;PMS_P2;Temp;Humidity;BMP_temperature;BMP_pressure;BME280_temperature;BME280_humidity;BME280_pressure;Samples;Min_cycle;Max_cycle;Signal;HPM_P1;HPM_P2
2022/03/03 00:00:28;;;;;;;76.50;36.43;;;2.00;99.90;;;;;;5042081;28;20499;-80
2022/03/03 00:02:54;;;;;;;70.17;35.77;;;2.00;99.90;;;;;;5013817;28;20896;-79
2022/03/03 00:05:20;;;;;;;72.23;35.80;;;2.00;99.90;;;;;;4997868;28;20295;-79
2022/03/03 00:07:45;;;;;;;75.73;36.97;;;1.90;99.90;;;;;;4999470;28;20052;-80
2022/03/03 00:10:11;;;;;;;66.63;34.53;;;1.90;99.90;;;;;;4999464;28;20044;-80
2022/03/03 00:12:37;;;;;;;67.43;35.50;;;1.80;99.90;;;;;;5016037;28;20040;-80
2022/03/03 00:15:04;;;;;;;67.07;34.57;;;1.80;99.90;;;;;;4999318;28;20476;-80
2022/03/03 00:17:30;;;;;;;67.90;33.10;;;1.70;99.90;;;;;;4999735;28;20065;-80
2022/03/03 00:19:55;;;;;;;68.10;34.63;;;1.70;99.90;;;;;;5032549;28;20739;-80
2022/03/03 00:22:21;;;;;;;69.73;34.07;;;1.60;99.90;;;;;;5015667;28;20072;-79
2022/03/03 00:24:48;;;;;;;75.43;33.90;;;1.60;99.90;;;;;;4999845;28;20041;-80
2022/03/03 00:27:14;;;;;;;68.83;33.80;;;1.50;99.90;;;;;;4999597;28;20485;-80
2022/03/03 00:29:40;;;;;;;76.83;36.57;;;1.40;99.90;;;;;;4999448;28;20370;-79
2022/03/03 00:32:06;;;;;;;75.70;35.00;;;1.40;99.90;;;;;;5015553;28;20367;-80
2022/03/03 00:34:32;;;;;;;72.53;35.80;;;1.40;99.90;;;;;;4999653;28;20049;-80
2022/03/03 00:36:58;;;;;;;78.77;36.63;;;1.40;99.90;;;;;;5010269;28;20287;-80
2022/03/03 00:39:24;;;;;;;72.20;34.70;;;1.40;99.90;;;;;;4999212;28;20041;-80
2022/03/03 00:41:50;;;;;;;77.50;37.30;;;1.40;99.90;;;;;;5031729;28;20070;-80
2022/03/03 00:44:15;;;;;;;78.10;37.97;;;1.40;99.90;;;;;;5011969;28;20120;-80
2022/03/03 00:46:41;;;;;;;76.80;35.90;;;1.50;99.90;;;;;;5015927;28;20048;-80
2022/03/03 00:49:07;;;;;;;75.13;36.03;;;1.50;99.90;;;;;;5015431;28;20059;-80
2022/03/03 00:51:34;;;;;;;76.43;35.93;;;1.50;99.90;;;;;;5014667;28;20080;-80
2022/03/03 00:54:00;;;;;;;76.10;36.30;;;1.40;99.90;;;;;;5015008;28;20283;-80
2022/03/03 00:56:25;;;;;;;73.13;35.63;;;1.40;99.90;;;;;;5014865;28;20284;-79
2022/03/03 00:58:51;;;;;;;72.23;34.40;;;1.40;99.90;;;;;;4998187;28;20306;-80
2022/03/03 01:01:17;;;;;;;83.83;37.70;;;1.40;99.90;;;;;;5014574;28;20127;-80
2022/03/03 01:03:44;;;;;;;70.73;36.10;;;1.40;99.90;;;;;;4992157;28;20102;-79
2022/03/03 01:06:10;;;;;;;76.27;36.30;;;1.40;99.90;;;;;;5031554;28;20285;-79
2022/03/03 01:08:37;;;;;;;72.77;36.57;;;1.30;99.90;;;;;;5031252;28;20290;-79
2022/03/03 01:11:04;;;;;;;74.73;36.93;;;1.30;99.90;;;;;;5014469;28;20429;-80
2022/03/03 01:13:30;;;;;;;76.77;37.73;;;1.20;99.90;;;;;;5014158;28;20386;-79
2022/03/03 01:15:56;;;;;;;76.80;35.57;;;1.10;99.90;;;;;;5030083;28;20437;-79
2022/03/03 01:18:22;;;;;;;73.37;35.73;;;1.20;99.90;;;;;;5013525;28;20488;-80
2022/03/03 01:20:49;;;;;;;73.87;35.80;;;1.20;99.90;;;;;;5027003;28;20318;-80
2022/03/03 01:23:15;;;;;;;67.20;34.20;;;1.10;99.90;;;;;;5034109;28;20048;-79
2022/03/03 01:25:41;;;;;;;83.20;38.73;;;1.10;99.90;;;;;;5017202;28;20279;-80
2022/03/03 01:28:07;;;;;;;74.27;36.33;;;1.00;99.90;;;;;;5018305;28;20271;-80
2022/03/03 01:30:33;;;;;;;76.10;37.17;;;1.00;99.90;;;;;;5019491;28;20075;-80
2022/03/03 01:32:59;;;;;;;71.03;35.93;;;1.00;99.90;;;;;;5015802;28;20033;-80
2022/03/03 01:35:24;;;;;;;77.30;35.20;;;1.00;99.90;;;;;;5019363;28;20037;-79
2022/03/03 01:37:50;;;;;;;71.97;36.83;;;0.90;99.90;;;;;;5035300;28;20048;-79
2022/03/03 01:40:16;;;;;;;73.83;35.83;;;0.90;99.90;;;;;;5018209;28;20073;-79
2022/03/03 01:42:42;;;;;;;77.73;36.90;;;0.90;99.90;;;;;;5018177;28;20075;-80
2022/03/03 01:45:08;;;;;;;78.77;36.80;;;0.90;99.90;;;;;;5018454;28;20064;-79
2022/03/03 01:47:34;;;;;;;71.67;34.90;;;0.90;99.90;;;;;;5007827;28;20147;-80
2022/03/03 01:50:00;;;;;;;73.07;35.53;;;0.90;99.90;;;;;;5034183;28;20383;-80
2022/03/03 01:52:27;;;;;;;75.13;35.73;;;0.80;99.90;;;;;;5018788;28;20373;-80
2022/03/03 01:54:53;;;;;;;67.33;36.13;;;0.80;99.90;;;;;;5018322;28;20809;-80
2022/03/03 01:57:20;;;;;;;72.17;34.07;;;0.80;99.90;;;;;;5002141;28;20283;-80
2022/03/03 01:59:47;;;;;;;74.60;36.77;;;0.80;99.90;;;;;;5020641;28;20283;-79
2022/03/03 02:02:13;;;;;;;73.17;36.20;;;0.80;99.90;;;;;;5018474;28;20685;-80
2022/03/03 02:04:40;;;;;;;71.97;34.73;;;0.90;99.90;;;;;;5002207;28;20299;-80
2022/03/03 02:07:07;;;;;;;75.07;37.77;;;0.90;99.90;;;;;;5002241;28;20025;-80
2022/03/03 02:09:34;;;;;;;77.43;37.57;;;0.80;99.90;;;;;;5020129;28;20287;-80
2022/03/03 02:12:00;;;;;;;72.43;36.13;;;0.70;99.90;;;;;;5034487;28;20311;-80
2022/03/03 02:14:26;;;;;;;73.37;35.93;;;0.70;99.90;;;;;;5018766;28;20394;-80
2022/03/03 02:16:52;;;;;;;71.17;34.70;;;0.60;99.90;;;;;;5001258;28;20045;-79
2022/03/03 02:19:21;;;;;;;69.03;35.30;;;0.60;99.90;;;;;;5001601;28;20060;-80
2022/03/03 02:21:49;;;;;;;73.40;37.07;;;0.60;99.90;;;;;;5018448;28;20160;-80
2022/03/03 02:24:15;;;;;;;76.17;37.27;;;0.60;99.90;;;;;;5010825;28;20306;-80
2022/03/03 02:26:42;;;;;;;69.70;35.43;;;0.60;99.90;;;;;;5018158;28;20766;-79
2022/03/03 02:29:08;;;;;;;78.13;36.07;;;0.60;99.90;;;;;;5034436;28;20171;-80
2022/03/03 02:31:34;;;;;;;66.70;34.13;;;0.50;99.90;;;;;;5012413;28;20850;-80
2022/03/03 02:34:00;;;;;;;69.20;34.97;;;0.50;99.90;;;;;;5003110;28;20045;-80
2022/03/03 02:36:27;;;;;;;75.87;35.57;;;0.40;99.90;;;;;;5018362;28;20063;-80
2022/03/03 02:38:55;;;;;;;75.37;35.03;;;0.50;99.90;;;;;;5000737;28;20287;-80
2022/03/03 02:41:22;;;;;;;74.03;35.93;;;0.40;99.90;;;;;;5034713;28;20284;-80
2022/03/03 02:43:48;;;;;;;77.40;37.00;;;0.40;99.90;;;;;;5017615;28;20333;-80
2022/03/03 02:46:14;;;;;;;74.30;35.97;;;0.40;99.90;;;;;;5034443;28;20362;-80
2022/03/03 02:48:40;;;;;;;74.87;35.03;;;0.40;99.90;;;;;;5017242;28;20037;-79
2022/03/03 02:51:07;;;;;;;72.07;36.20;;;0.40;99.90;;;;;;5034172;28;20279;-79
2022/03/03 02:53:33;;;;;;;73.70;35.87;;;0.40;99.90;;;;;;5051898;28;20051;-80
2022/03/03 02:55:59;;;;;;;71.97;37.33;;;0.40;99.90;;;;;;5033659;28;20272;-80
2022/03/03 02:58:25;;;;;;;78.67;36.23;;;0.40;99.90;;;;;;5033309;28;20817;-79
2022/03/03 03:00:51;;;;;;;77.53;36.87;;;0.40;99.90;;;;;;5051249;28;20069;-80
2022/03/03 03:03:18;;;;;;;84.63;38.57;;;0.50;99.90;;;;;;4999010;28;20798;-80
2022/03/03 03:05:45;;;;;;;70.80;37.37;;;0.50;99.90;;;;;;5033755;28;20283;-80
2022/03/03 03:08:11;;;;;;;78.07;35.73;;;0.50;99.90;;;;;;5033931;28;20287;-80
2022/03/03 03:10:38;;;;;;;76.60;35.30;;;0.50;99.90;;;;;;5017409;28;20276;-80
2022/03/03 03:13:04;;;;;;;71.63;36.10;;;0.50;99.90;;;;;;5017786;28;20302;-80
2022/03/03 03:15:30;;;;;;;76.33;35.63;;;0.50;99.90;;;;;;5017745;28;20341;-80
2022/03/03 03:18:08;;;;;;;76.43;36.73;;;0.50;99.90;;;;;;5033493;28;20283;-79
2022/03/03 03:20:34;;;;;;;76.57;35.10;;;0.50;99.90;;;;;;5034290;28;20353;-80
2022/03/03 03:22:59;;;;;;;71.67;35.23;;;0.50;99.90;;;;;;5000443;28;20763;-80
2022/03/03 03:25:25;;;;;;;77.17;37.63;;;0.50;99.90;;;;;;5001093;28;20091;-85
2022/03/03 03:27:51;;;;;;;78.73;36.67;;;0.50;99.90;;;;;;5018307;28;20043;-86
2022/03/03 03:30:17;;;;;;;76.50;36.33;;;0.60;99.90;;;;;;4998777;28;20280;-85
2022/03/03 03:32:43;;;;;;;73.27;36.53;;;0.70;99.90;;;;;;5023817;28;20381;-85
2022/03/03 03:35:09;;;;;;;71.33;34.03;;;0.60;99.90;;;;;;5002214;28;20044;-85
2022/03/03 03:37:38;;;;;;;67.10;33.90;;;0.60;99.90;;;;;;5034548;28;20504;-85
2022/03/03 03:40:06;;;;;;;73.00;35.20;;;0.60;99.90;;;;;;5034028;28;20374;-85
2022/03/03 03:42:31;;;;;;;68.47;34.63;;;0.50;99.90;;;;;;5022088;28;20307;-85
2022/03/03 03:44:57;;;;;;;74.47;35.90;;;0.50;99.90;;;;;;5005106;28;20822;-85
2022/03/03 03:47:23;;;;;;;72.27;36.20;;;0.50;99.90;;;;;;5016486;28;20116;-85
2022/03/03 03:49:49;;;;;;;69.53;34.70;;;0.50;99.90;;;;;;5018237;28;20412;-85
2022/03/03 03:52:14;;;;;;;71.80;36.50;;;0.50;99.90;;;;;;5002019;28;20109;-85
2022/03/03 03:54:40;;;;;;;70.80;35.90;;;0.50;99.90;;;;;;5014662;28;20583;-85
2022/03/03 03:57:06;;;;;;;73.20;35.93;;;0.50;99.90;;;;;;5018091;28;20040;-85
2022/03/03 03:59:32;;;;;;;67.17;35.27;;;0.50;99.90;;;;;;5018041;28;20036;-85
2022/03/03 04:01:58;;;;;;;73.70;35.80;;;0.50;99.90;;;;;;5001117;28;20512;-86
2022/03/03 04:04:23;;;;;;;74.90;36.43;;;0.50;99.90;;;;;;5032613;28;20044;-86
2022/03/03 04:06:49;;;;;;;67.63;34.93;;;0.40;99.90;;;;;;5017895;28;20978;-85
2022/03/03 04:09:15;;;;;;;74.13;34.47;;;0.40;99.90;;;;;;5001644;28;20036;-85
2022/03/03 04:11:41;;;;;;;72.17;34.93;;;0.40;99.90;;;;;;5034668;28;20048;-86
2022/03/03 04:14:06;;;;;;;69.63;33.40;;;0.30;99.90;;;;;;5018100;28;20041;-86
2022/03/03 04:16:32;;;;;;;70.73;35.17;;;0.30;99.90;;;;;;5017613;28;20049;-83
2022/03/03 04:18:58;;;;;;;70.83;35.00;;;0.40;99.90;;;;;;5036119;28;20040;-84
2022/03/03 04:21:24;;;;;;;71.67;35.17;;;0.30;99.90;;;;;;5017442;28;20044;-85
2022/03/03 04:23:50;;;;;;;68.33;34.63;;;0.30;99.90;;;;;;5009033;28;20711;-86
2022/03/03 04:26:15;;;;;;;70.47;35.97;;;0.30;99.90;;;;;;5031370;28;20116;-85
2022/03/03 04:28:41;;;;;;;67.27;33.83;;;0.30;99.90;;;;;;5017807;28;20068;-86
2022/03/03 04:31:07;;;;;;;70.63;34.20;;;0.30;99.90;;;;;;5023562;28;20385;-86
2022/03/03 04:33:33;;;;;;;69.53;34.33;;;0.30;99.90;;;;;;5017530;28;20289;-85
2022/03/03 04:35:59;;;;;;;69.20;34.10;;;0.20;99.90;;;;;;5001145;28;20053;-86
2022/03/03 04:38:25;;;;;;;66.20;35.27;;;0.20;99.90;;;;;;4991288;28;20038;-86
2022/03/03 04:40:51;;;;;;;71.63;34.60;;;0.20;99.90;;;;;;5017660;28;20049;-85
2022/03/03 04:43:17;;;;;;;65.20;34.20;;;0.20;99.90;;;;;;5017336;28;20310;-85
2022/03/03 04:45:44;;;;;;;64.43;32.27;;;0.20;99.90;;;;;;5017191;28;20037;-85
2022/03/03 04:48:10;;;;;;;67.00;34.17;;;0.20;99.90;;;;;;5017643;28;20271;-85
2022/03/03 04:50:36;;;;;;;59.17;32.60;;;0.20;99.90;;;;;;4998871;28;20627;-85
2022/03/03 04:53:02;;;;;;;62.00;32.37;;;0.10;99.90;;;;;;4998717;28;20295;-80
2022/03/03 04:55:28;;;;;;;68.50;33.70;;;0.10;99.90;;;;;;5053801;28;20431;-79
2022/03/03 04:57:54;;;;;;;65.13;33.20;;;0.10;99.90;;;;;;5020237;28;20310;-80
2022/03/03 05:00:20;;;;;;;66.93;33.40;;;0.10;99.90;;;;;;5017585;28;20283;-80
2022/03/03 05:02:46;;;;;;;64.03;33.03;;;0.00;99.90;;;;;;5019833;28;20103;-80
2022/03/03 05:05:11;;;;;;;62.13;32.37;;;0.00;99.90;;;;;;5002322;28;20038;-80
2022/03/03 05:07:37;;;;;;;64.23;33.03;;;0.00;99.90;;;;;;4987402;28;20362;-80
2022/03/03 05:10:04;;;;;;;60.60;31.67;;;-0.10;99.90;;;;;;5020052;28;20477;-80
2022/03/03 05:12:30;;;;;;;59.63;30.87;;;-0.10;99.90;;;;;;5003224;28;20044;-80
2022/03/03 05:14:56;;;;;;;56.57;30.43;;;-0.10;99.90;;;;;;5023113;28;20287;-80
2022/03/03 05:17:22;;;;;;;65.63;32.00;;;-0.10;99.90;;;;;;5003355;28;20091;-80
2022/03/03 05:19:48;;;;;;;57.57;29.40;;;-0.10;99.90;;;;;;4985586;28;20296;-80
2022/03/03 05:22:14;;;;;;;57.73;32.17;;;0.00;99.90;;;;;;5003036;28;20353;-80
2022/03/03 05:24:40;;;;;;;61.53;31.70;;;0.00;99.90;;;;;;5053531;28;20045;-80
2022/03/03 05:27:06;;;;;;;61.03;31.57;;;0.00;99.90;;;;;;5036547;28;20045;-79
2022/03/03 05:29:32;;;;;;;59.93;32.20;;;0.10;99.90;;;;;;5002814;28;20465;-79
2022/03/03 05:31:58;;;;;;;57.33;30.23;;;0.00;99.90;;;;;;5018445;28;20036;-79
2022/03/03 05:34:25;;;;;;;64.17;31.90;;;0.00;99.90;;;;;;5016940;28;20073;-79
2022/03/03 05:36:52;;;;;;;56.17;30.63;;;0.00;99.90;;;;;;5033525;28;20280;-79
2022/03/03 05:39:18;;;;;;;60.77;32.47;;;-0.10;99.90;;;;;;5018500;28;20291;-79
2022/03/03 05:41:44;;;;;;;60.03;31.60;;;-0.10;99.90;;;;;;4998724;28;20287;-79
2022/03/03 05:44:14;;;;;;;64.37;30.93;;;-0.20;99.90;;;;;;5018530;28;20307;-79
2022/03/03 05:46:44;;;;;;;64.33;31.23;;;-0.20;99.90;;;;;;5002303;28;20052;-79
2022/03/03 05:49:10;;;;;;;61.70;31.40;;;-0.30;99.90;;;;;;5001921;28;20284;-79
2022/03/03 05:51:36;;;;;;;58.73;31.23;;;-0.40;99.90;;;;;;4986014;28;20358;-79
2022/03/03 05:54:03;;;;;;;57.50;30.00;;;-0.50;99.90;;;;;;5005223;28;20857;-79
2022/03/03 05:56:32;;;;;;;57.20;30.63;;;-0.50;99.90;;;;;;5034157;28;20108;-79
2022/03/03 05:59:06;;;;;;;61.00;31.53;;;-0.50;99.90;;;;;;5033950;28;20279;-79
2022/03/03 06:01:34;;;;;;;57.77;29.67;;;-0.50;99.90;;;;;;5016441;28;20279;-79
2022/03/03 06:04:00;;;;;;;63.93;31.37;;;-0.50;99.90;;;;;;5016232;28;20388;-79
2022/03/03 06:06:34;;;;;;;58.33;31.53;;;-0.50;99.90;;;;;;5032587;28;20286;-79
2022/03/03 06:09:10;;;;;;;61.63;31.70;;;-0.50;99.90;;;;;;5016969;28;20287;-79
2022/03/03 06:12:03;;;;;;;65.80;32.43;;;-0.50;99.90;;;;;;5017066;28;20337;-79
2022/03/03 06:14:38;;;;;;;51.37;28.03;;;-0.50;99.90;;;;;;5017734;28;20635;-87
2022/03/03 06:17:05;;;;;;;59.77;31.27;;;-0.60;99.90;;;;;;5018314;28;20276;-87
2022/03/03 06:19:41;;;;;;;64.40;32.10;;;-0.60;99.90;;;;;;5035749;28;20280;-87
2022/03/03 06:22:11;;;;;;;63.57;32.10;;;-0.70;99.90;;;;;;4980268;28;20347;-87
2022/03/03 06:24:37;;;;;;;62.10;32.50;;;-0.60;99.90;;;;;;4985294;28;20415;-87
2022/03/03 06:27:04;;;;;;;60.37;31.53;;;-0.60;99.90;;;;;;5016901;28;20279;-85
2022/03/03 06:29:32;;;;;;;59.07;30.53;;;-0.70;99.90;;;;;;5008260;28;20287;-85
2022/03/03 06:31:58;;;;;;;62.53;31.60;;;-0.70;99.90;;;;;;4964213;28;20285;-85
2022/03/03 06:34:24;;;;;;;59.77;31.10;;;-0.70;99.90;;;;;;5018483;28;20285;-84
2022/03/03 06:36:51;;;;;;;61.77;32.00;;;-0.60;99.90;;;;;;5016695;28;20375;-85
2022/03/03 06:39:17;;;;;;;63.23;32.60;;;-0.60;99.90;;;;;;5016702;28;20044;-85
2022/03/03 06:41:43;;;;;;;62.13;30.83;;;-0.60;99.90;;;;;;5017330;28;20347;-85
2022/03/03 06:44:08;;;;;;;61.47;31.87;;;-0.60;99.90;;;;;;5008096;28;20807;-86
2022/03/03 06:46:35;;;;;;;60.57;32.97;;;-0.50;99.90;;;;;;4984785;28;20043;-85
2022/03/03 06:49:00;;;;;;;57.67;31.67;;;-0.50;99.90;;;;;;5017227;28;20041;-85
2022/03/03 06:51:31;;;;;;;70.13;33.73;;;-0.40;99.90;;;;;;5002676;28;21009;-83
2022/03/03 06:54:02;;;;;;;65.13;32.07;;;-0.40;99.90;;;;;;5007234;28;20068;-85
2022/03/03 06:56:30;;;;;;;64.13;32.20;;;-0.30;99.90;;;;;;5019440;28;20284;-86
2022/03/03 06:58:59;;;;;;;62.97;32.20;;;-0.30;99.90;;;;;;5016731;28;20316;-85
2022/03/03 07:01:27;;;;;;;61.20;31.57;;;-0.20;99.90;;;;;;5000630;28;20352;-85
2022/03/03 07:03:53;;;;;;;58.00;31.40;;;-0.10;99.90;;;;;;5016761;28;20300;-85
2022/03/03 07:06:19;;;;;;;61.43;32.97;;;-0.10;99.90;;;;;;5000264;28;20283;-84
2022/03/03 07:08:47;;;;;;;62.03;32.00;;;0.00;99.90;;;;;;5034872;28;20047;-84
2022/03/03 07:11:14;;;;;;;58.93;31.63;;;0.10;99.90;;;;;;5024279;28;20375;-84
2022/03/03 07:13:43;;;;;;;59.10;32.17;;;0.10;99.90;;;;;;4999805;28;20280;-85
2022/03/03 07:16:14;;;;;;;62.37;32.37;;;0.20;99.90;;;;;;4996086;28;20613;-84
2022/03/03 07:18:44;;;;;;;67.18;33.25;;;0.20;99.90;;;;;;5015410;28;20784;-84
2022/03/03 07:21:24;;;;;;;61.50;33.30;;;0.30;99.90;;;;;;5010068;28;20517;-86
2022/03/03 07:24:10;;;;;;;62.73;33.23;;;0.30;99.90;;;;;;5016190;28;21108;-86
2022/03/03 07:26:37;;;;;;;59.87;31.60;;;0.40;99.90;;;;;;5035913;28;20287;-86
2022/03/03 07:29:04;;;;;;;58.63;31.77;;;0.50;99.90;;;;;;5018372;28;20283;-86
2022/03/03 07:31:34;;;;;;;57.93;30.43;;;0.50;99.90;;;;;;5018427;28;20307;-86
2022/03/03 07:34:01;;;;;;;60.10;31.43;;;0.60;99.90;;;;;;5052619;28;20310;-86
2022/03/03 07:36:37;;;;;;;53.47;31.33;;;0.70;99.90;;;;;;5018319;28;20322;-86
2022/03/03 07:39:10;;;;;;;54.97;31.20;;;0.70;99.90;;;;;;5034607;28;20292;-86
2022/03/03 07:41:35;;;;;;;54.80;30.43;;;0.80;99.90;;;;;;5052394;28;20337;-86
2022/03/03 07:44:01;;;;;;;64.17;32.30;;;0.90;99.90;;;;;;5052326;28;20304;-86
2022/03/03 07:46:28;;;;;;;54.23;28.43;;;0.90;99.90;;;;;;5034210;28;20041;-86
2022/03/03 07:48:55;;;;;;;54.67;30.37;;;1.00;99.90;;;;;;5001636;28;20789;-86
2022/03/03 07:51:22;;;;;;;54.03;30.40;;;1.00;99.90;;;;;;5034888;28;20337;-86
2022/03/03 07:53:49;;;;;;;59.93;30.27;;;1.10;99.90;;;;;;5034431;28;20298;-86
2022/03/03 07:56:26;;;;;;;54.67;29.23;;;1.10;99.90;;;;;;5017844;28;20282;-86
2022/03/03 07:58:58;;;;;;;58.60;29.80;;;1.30;99.90;;;;;;5033983;28;20306;-86
2022/03/03 08:01:25;;;;;;;51.35;30.50;;;1.30;99.90;;;;;;5024847;28;20769;-86
2022/03/03 08:03:52;;;;;;;60.33;30.20;;;1.40;99.90;;;;;;5001696;28;20443;-86
2022/03/03 08:06:19;;;;;;;59.17;30.20;;;1.50;99.90;;;;;;5017445;28;20336;-86
2022/03/03 08:08:46;;;;;;;58.47;30.20;;;1.50;99.90;;;;;;5033961;28;20292;-87
2022/03/03 08:11:12;;;;;;;59.47;30.03;;;1.70;99.90;;;;;;5033688;28;20771;-86
2022/03/03 08:13:38;;;;;;;54.17;29.20;;;1.80;99.90;;;;;;5016836;28;20358;-86
2022/03/03 08:16:04;;;;;;;53.80;30.30;;;1.70;99.90;;;;;;5015491;28;20191;-87
2022/03/03 08:18:38;;;;;;;55.43;29.67;;;1.80;99.90;;;;;;5030032;28;20044;-87
2022/03/03 08:21:06;;;;;;;51.77;28.00;;;1.90;99.90;;;;;;5014055;28;20382;-86
2022/03/03 08:23:32;;;;;;;54.40;28.57;;;2.00;99.90;;;;;;4997495;28;20288;-87
2022/03/03 08:26:00;;;;;;;51.07;28.03;;;2.10;99.90;;;;;;5010007;28;20639;-86
2022/03/03 08:28:25;;;;;;;54.10;30.07;;;2.10;99.90;;;;;;4997842;28;20688;-87
2022/03/03 08:31:01;;;;;;;53.83;28.60;;;2.20;99.90;;;;;;4981605;28;20375;-87
2022/03/03 08:33:49;;;;;;;53.67;29.90;;;2.30;99.90;;;;;;4997959;28;20049;-86
2022/03/03 08:36:21;;;;;;;49.40;28.50;;;2.30;99.90;;;;;;4978211;28;20281;-86
2022/03/03 08:38:51;;;;;;;55.38;29.02;;;2.40;99.90;;;;;;4993821;28;20334;-87
2022/03/03 08:41:22;;;;;;;51.00;28.60;;;2.40;99.90;;;;;;5016367;28;20034;-87
2022/03/03 08:43:52;;;;;;;52.20;27.10;;;2.50;99.90;;;;;;5033705;28;20853;-87
2022/03/03 08:46:23;;;;;;;51.13;28.27;;;2.60;99.90;;;;;;5017252;28;20345;-87
2022/03/03 08:48:50;;;;;;;48.97;28.33;;;2.70;99.90;;;;;;5013820;28;20734;-87
2022/03/03 08:51:19;;;;;;;50.43;27.50;;;2.80;99.90;;;;;;4981333;28;20038;-87
2022/03/03 08:53:46;;;;;;;54.00;29.07;;;2.90;99.90;;;;;;5000164;28;20284;-86
2022/03/03 08:56:12;;;;;;;47.47;26.63;;;2.90;99.90;;;;;;5020190;28;20288;-87
2022/03/03 08:58:38;;;;;;;50.53;27.70;;;2.90;99.90;;;;;;4997465;28;20287;-87
2022/03/03 09:01:04;;;;;;;51.10;28.07;;;3.10;99.90;;;;;;5027148;28;20037;-87
2022/03/03 09:03:30;;;;;;;47.20;26.23;;;3.20;99.90;;;;;;4997820;28;20037;-87
2022/03/03 09:05:56;;;;;;;45.60;25.40;;;3.20;99.90;;;;;;5014256;28;20046;-87
2022/03/03 09:08:23;;;;;;;43.63;26.23;;;3.30;99.90;;;;;;5011081;28;20044;-88
2022/03/03 09:10:49;;;;;;;45.83;26.30;;;3.40;99.90;;;;;;5013700;28;20280;-87
2022/03/03 09:13:16;;;;;;;42.00;25.13;;;3.50;99.90;;;;;;4975913;28;21074;-87
2022/03/03 09:15:42;;;;;;;50.40;26.27;;;3.60;99.90;;;;;;4993653;28;20287;-87
2022/03/03 09:18:08;;;;;;;50.10;26.77;;;3.70;99.90;;;;;;4997198;28;20290;-87
2022/03/03 09:20:35;;;;;;;44.90;25.30;;;3.80;99.90;;;;;;5007232;28;20291;-87
2022/03/03 09:23:02;;;;;;;44.17;25.93;;;3.90;99.90;;;;;;5051081;28;20057;-87
2022/03/03 09:25:28;;;;;;;42.90;24.60;;;4.00;99.90;;;;;;5017992;28;20102;-88
2022/03/03 09:27:53;;;;;;;43.53;24.83;;;4.10;99.90;;;;;;5012078;28;20277;-87
2022/03/03 09:30:21;;;;;;;44.37;25.33;;;4.20;99.90;;;;;;5051069;28;20403;-86
2022/03/03 09:32:47;;;;;;;43.07;23.37;;;4.30;99.90;;;;;;5021638;28;20127;-87
2022/03/03 09:35:12;;;;;;;40.83;23.63;;;4.40;99.90;;;;;;5015787;28;20152;-87
2022/03/03 09:37:39;;;;;;;35.73;21.40;;;4.60;99.90;;;;;;5016700;28;20130;-86
2022/03/03 09:40:06;;;;;;;37.83;21.67;;;4.60;99.90;;;;;;4998715;28;20045;-88
2022/03/03 09:42:34;;;;;;;36.10;21.87;;;4.70;99.90;;;;;;5004166;28;20044;-87
2022/03/03 09:45:08;;;;;;;39.13;21.80;;;4.80;99.90;;;;;;5018858;28;20056;-87
2022/03/03 09:47:38;;;;;;;39.70;22.50;;;4.90;99.90;;;;;;5016631;28;20033;-87
2022/03/03 09:50:05;;;;;;;38.27;22.67;;;5.00;99.90;;;;;;5036935;28;20049;-87
2022/03/03 09:52:31;;;;;;;34.73;20.87;;;5.00;99.90;;;;;;5031067;28;20713;-87
2022/03/03 09:54:57;;;;;;;34.53;19.87;;;5.20;99.90;;;;;;5010799;28;20041;-87
2022/03/03 09:57:24;;;;;;;32.30;19.67;;;5.30;99.90;;;;;;5031660;28;20095;-86
2022/03/03 09:59:52;;;;;;;35.07;19.47;;;5.40;99.90;;;;;;5014265;28;20048;-87
2022/03/03 10:02:18;;;;;;;34.17;20.17;;;5.50;99.90;;;;;;5014114;28;20051;-87
2022/03/03 10:04:44;;;;;;;34.37;20.60;;;5.60;99.90;;;;;;5029947;28;20037;-86
2022/03/03 10:07:10;;;;;;;33.67;20.40;;;5.80;99.90;;;;;;5013604;28;20480;-86
2022/03/03 10:12:22;;;;;;;31.60;19.17;;;6.00;99.90;;;;;;5017792;28;20079;-88
2022/03/03 10:14:49;;;;;;;30.70;19.13;;;6.10;99.90;;;;;;5036015;28;20049;-87
2022/03/03 10:17:16;;;;;;;33.10;19.47;;;6.20;99.90;;;;;;5034495;28;20527;-87
2022/03/03 10:19:57;;;;;;;31.90;18.80;;;6.20;99.90;;;;;;5016188;28;20099;-87
2022/03/03 10:22:43;;;;;;;31.47;19.40;;;6.30;99.90;;;;;;5019584;28;20485;-87
2022/03/03 10:25:10;;;;;;;30.30;18.47;;;6.50;99.90;;;;;;5025941;28;20505;-87
2022/03/03 10:27:36;;;;;;;28.70;18.07;;;6.50;99.90;;;;;;5022764;28;20373;-88
2022/03/03 10:30:05;;;;;;;30.97;18.73;;;6.60;99.90;;;;;;5035150;28;20040;-87
2022/03/03 10:32:31;;;;;;;27.37;17.30;;;6.70;99.90;;;;;;5027881;28;20045;-88
2022/03/03 10:35:24;;;;;;;29.13;19.00;;;6.70;99.90;;;;;;4998737;28;20047;-87
2022/03/03 10:37:51;;;;;;;30.10;19.73;;;6.80;99.90;;;;;;4977089;28;20401;-85
2022/03/03 10:40:17;;;;;;;30.33;18.00;;;6.90;99.90;;;;;;5011454;28;20127;-85
2022/03/03 10:42:46;;;;;;;30.37;18.57;;;7.00;99.90;;;;;;5011275;28;20103;-84
2022/03/03 10:45:16;;;;;;;31.87;17.93;;;7.10;99.90;;;;;;5028105;28;20045;-86
2022/03/03 10:48:00;;;;;;;30.23;18.40;;;7.20;99.90;;;;;;5015768;28;20464;-85
2022/03/03 10:50:26;;;;;;;29.60;18.77;;;7.30;99.90;;;;;;5004020;28;20040;-85
2022/03/03 10:52:52;;;;;;;30.97;18.57;;;7.30;99.90;;;;;;4998350;28;20124;-85
2022/03/03 10:55:19;;;;;;;28.63;17.87;;;7.50;99.90;;;;;;5019195;28;20092;-84
2022/03/03 10:57:51;;;;;;;29.57;16.97;;;7.50;99.90;;;;;;5025169;28;20052;-85
2022/03/03 11:00:20;;;;;;;25.63;16.95;;;7.60;99.90;;;;;;5035402;28;20037;-85
2022/03/03 11:02:48;;;;;;;31.27;17.97;;;7.60;99.90;;;;;;5018708;28;20041;-85
2022/03/03 11:05:15;;;;;;;27.03;17.60;;;7.70;99.90;;;;;;5000935;28;20099;-85
2022/03/03 11:07:44;;;;;;;25.67;17.20;;;7.80;99.90;;;;;;5002081;28;20569;-83
2022/03/03 11:10:19;;;;;;;25.13;16.77;;;8.00;99.90;;;;;;5034910;28;20124;-85
2022/03/03 11:12:45;;;;;;;25.47;16.37;;;8.00;93.20;;;;;;5035451;28;20033;-84
2022/03/03 11:15:18;;;;;;;25.67;16.83;;;8.10;97.20;;;;;;5019124;28;20127;-85
2022/03/03 11:17:45;;;;;;;29.47;18.37;;;8.20;95.40;;;;;;5018361;28;20055;-85
2022/03/03 11:20:14;;;;;;;26.90;16.63;;;8.30;96.70;;;;;;5021936;28;20088;-84
2022/03/03 11:22:41;;;;;;;25.17;17.00;;;8.30;94.40;;;;;;5014951;28;20131;-85
2022/03/03 11:25:14;;;;;;;26.27;17.03;;;8.30;94.30;;;;;;5033789;28;20651;-86
2022/03/03 11:27:41;;;;;;;29.07;17.87;;;8.30;91.70;;;;;;5031068;28;20045;-83
2022/03/03 11:30:27;;;;;;;27.40;17.37;;;8.40;91.70;;;;;;5022049;28;20040;-86
2022/03/03 11:33:18;;;;;;;27.50;17.30;;;8.50;89.90;;;;;;5017101;28;20033;-84
2022/03/03 11:35:57;;;;;;;26.53;18.00;;;8.50;90.10;;;;;;5004577;28;20537;-85
2022/03/03 11:38:25;;;;;;;27.87;18.47;;;8.50;91.70;;;;;;5033606;28;20048;-87
2022/03/03 11:41:03;;;;;;;29.17;18.47;;;8.50;90.90;;;;;;5016297;28;20095;-86
2022/03/03 11:43:30;;;;;;;28.83;18.83;;;8.50;89.30;;;;;;5032914;28;20041;-86
2022/03/03 11:45:58;;;;;;;29.93;19.10;;;8.50;90.20;;;;;;5032414;28;20048;-86
2022/03/03 11:48:35;;;;;;;29.60;18.77;;;8.50;89.70;;;;;;5032107;28;20099;-87
2022/03/03 11:51:32;;;;;;;27.83;18.17;;;8.60;90.50;;;;;;5016568;28;20066;-86
2022/03/03 11:54:07;;;;;;;31.77;19.33;;;8.60;87.90;;;;;;5016721;28;20055;-87
2022/03/03 11:56:33;;;;;;;29.97;20.13;;;8.70;88.60;;;;;;5032721;28;20049;-86
2022/03/03 11:59:12;;;;;;;29.33;19.43;;;8.70;90.20;;;;;;5033968;28;20068;-85
2022/03/03 12:01:57;;;;;;;29.67;18.73;;;8.70;85.40;;;;;;5036099;28;20128;-86
2022/03/03 12:04:25;;;;;;;31.27;19.53;;;8.80;87.70;;;;;;5041331;28;20516;-86
2022/03/03 12:06:51;;;;;;;27.93;18.57;;;8.90;89.20;;;;;;5032684;28;20646;-84
2022/03/03 12:09:24;;;;;;;30.10;19.07;;;8.90;87.90;;;;;;5051694;28;20044;-84
2022/03/03 12:12:08;;;;;;;31.47;19.63;;;9.00;87.10;;;;;;5018889;28;20091;-86
2022/03/03 12:14:37;;;;;;;31.80;20.20;;;9.00;85.00;;;;;;5017360;28;20041;-85
2022/03/03 12:17:41;;;;;;;26.43;19.10;;;8.90;88.70;;;;;;5026435;28;20507;-86
2022/03/03 12:20:30;;;;;;;29.20;18.53;;;8.90;86.20;;;;;;5014260;28;20158;-86
2022/03/03 12:23:10;;;;;;;30.93;18.90;;;9.00;84.10;;;;;;4998431;28;20445;-86
2022/03/03 12:25:50;;;;;;;29.93;18.53;;;9.00;84.50;;;;;;5023883;28;20083;-85
2022/03/03 12:28:18;;;;;;;31.37;19.83;;;9.10;84.00;;;;;;5033903;28;20095;-87
2022/03/03 12:30:46;;;;;;;29.07;19.37;;;9.20;86.20;;;;;;5012893;28;20068;-86
2022/03/03 12:33:23;;;;;;;28.10;19.57;;;9.20;85.40;;;;;;5012193;28;20266;-85
2022/03/03 12:35:49;;;;;;;29.53;18.30;;;9.20;84.00;;;;;;5033852;28;20048;-85
2022/03/03 12:38:15;;;;;;;30.47;18.53;;;9.20;85.40;;;;;;5034130;28;20047;-85
2022/03/03 12:40:42;;;;;;;28.50;19.03;;;9.30;84.60;;;;;;5000961;28;20446;-85
2022/03/03 12:43:19;;;;;;;30.53;19.53;;;9.30;83.40;;;;;;5018005;28;20033;-86